createdAt,value
2017-10-06T00:01:55.358Z,6.53
2017-10-06T00:04:27.807Z,5.90
2017-10-06T00:06:58.666Z,4.57
2017-10-06T00:09:30.325Z,5.40
2017-10-06T00:12:02.694Z,5.20
2017-10-06T00:14:33.814Z,8.50
2017-10-06T00:17:08.076Z,11.07
2017-10-06T00:19:40.184Z,5.20
2017-10-06T00:22:12.528Z,5.83
2017-10-06T00:24:43.574Z,6.40
2017-10-06T00:27:15.727Z,5.30
2017-10-06T00:29:49.582Z,7.07
2017-10-06T00:32:23.432Z,8.27
2017-10-06T00:34:59.546Z,6.37
2017-10-06T00:37:32.210Z,6.93
2017-10-06T00:40:03.093Z,5.83
2017-10-06T00:42:33.812Z,5.63
2017-10-06T00:45:05.567Z,5.63
2017-10-06T00:47:37.526Z,10.20
2017-10-06T00:50:09.925Z,7.10
2017-10-06T00:52:41.330Z,5.93
2017-10-06T00:55:11.676Z,6.05
2017-10-06T00:57:44.708Z,4.77
2017-10-06T01:00:17.341Z,5.50
2017-10-06T01:02:48.079Z,5.27
2017-10-06T01:05:19.085Z,5.60
2017-10-06T01:07:49.833Z,7.63
2017-10-06T01:10:21.020Z,6.00
2017-10-06T01:12:55.295Z,7.63
2017-10-06T01:15:28.058Z,4.40
2017-10-06T01:17:59.371Z,4.60
2017-10-06T01:20:31.594Z,6.07
2017-10-06T01:23:01.950Z,4.80
2017-10-06T01:25:32.130Z,5.57
2017-10-06T01:28:02.566Z,5.47
2017-10-06T01:30:32.828Z,6.80
2017-10-06T01:33:05.060Z,6.00
2017-10-06T01:35:34.873Z,6.30
2017-10-06T01:38:05.338Z,4.97
2017-10-06T01:40:37.662Z,4.80
2017-10-06T01:43:08.259Z,4.60
2017-10-06T01:45:38.555Z,4.13
2017-10-06T01:48:09.943Z,3.70
2017-10-06T01:50:40.673Z,5.17
2017-10-06T01:53:12.091Z,4.83
2017-10-06T01:55:42.245Z,4.70
2017-10-06T01:58:13.784Z,4.70
2017-10-06T02:00:44.051Z,4.90
2017-10-06T02:03:14.816Z,4.40
2017-10-06T02:05:45.413Z,4.30
2017-10-06T02:08:15.432Z,4.47
2017-10-06T02:10:45.625Z,4.23
2017-10-06T02:13:15.450Z,3.87
2017-10-06T02:15:45.841Z,5.93
2017-10-06T02:18:16.413Z,4.60
2017-10-06T02:20:46.610Z,4.67
2017-10-06T02:23:17.144Z,4.30
2017-10-06T02:25:47.877Z,4.87
2017-10-06T02:28:19.164Z,5.00
2017-10-06T02:30:49.079Z,5.30
2017-10-06T02:33:20.392Z,4.23
2017-10-06T02:35:51.541Z,5.93
2017-10-06T02:38:22.800Z,5.90
2017-10-06T02:40:53.750Z,5.47
2017-10-06T02:43:23.862Z,4.60
2017-10-06T02:45:54.357Z,6.40
2017-10-06T02:48:25.827Z,5.57
2017-10-06T02:50:55.872Z,5.07
2017-10-06T02:53:26.655Z,4.93
2017-10-06T02:55:57.180Z,5.43
2017-10-06T02:58:27.365Z,4.63
2017-10-06T03:00:58.806Z,4.90
2017-10-06T03:03:30.403Z,5.00
2017-10-06T03:06:01.679Z,5.00
2017-10-06T03:08:32.262Z,4.80
2017-10-06T03:11:02.410Z,7.80
2017-10-06T03:13:32.883Z,5.27
2017-10-06T03:16:03.773Z,5.80
2017-10-06T03:18:34.936Z,5.60
2017-10-06T03:21:05.075Z,4.70
2017-10-06T03:23:35.780Z,7.97
2017-10-06T03:26:05.981Z,6.97
2017-10-06T03:28:35.918Z,6.57
2017-10-06T03:31:05.819Z,5.10
2017-10-06T03:33:36.290Z,4.10
2017-10-06T03:36:06.216Z,4.90
2017-10-06T03:38:36.848Z,6.03
2017-10-06T03:41:06.958Z,4.37
2017-10-06T03:43:37.231Z,4.70
2017-10-06T03:46:08.732Z,4.80
2017-10-06T03:48:40.092Z,4.70
2017-10-06T03:51:10.967Z,3.97
2017-10-06T03:53:42.743Z,4.40
2017-10-06T03:56:14.014Z,6.47
2017-10-06T03:58:44.705Z,5.40
2017-10-06T04:01:15.874Z,9.00
2017-10-06T04:03:48.280Z,4.67
2017-10-06T04:06:20.103Z,6.50
2017-10-06T04:08:53.527Z,8.30
2017-10-06T04:11:26.114Z,5.37
2017-10-06T04:13:56.911Z,4.63
2017-10-06T04:16:26.984Z,6.57
2017-10-06T04:18:59.692Z,5.87
2017-10-06T04:21:32.324Z,6.00
2017-10-06T04:24:06.452Z,5.37
2017-10-06T04:26:37.725Z,5.30
2017-10-06T04:29:08.373Z,4.60
2017-10-06T04:31:39.572Z,6.40
2017-10-06T04:34:11.646Z,6.07
2017-10-06T04:36:42.615Z,6.37
2017-10-06T04:39:13.509Z,4.77
2017-10-06T04:41:47.472Z,5.17
2017-10-06T04:44:17.886Z,5.03
2017-10-06T04:46:51.008Z,6.00
2017-10-06T04:49:22.955Z,6.13
2017-10-06T04:51:56.787Z,7.07
2017-10-06T04:54:31.162Z,6.63
2017-10-06T04:57:01.828Z,8.53
2017-10-06T04:59:32.626Z,6.47
2017-10-06T05:02:03.298Z,6.10
2017-10-06T05:04:35.487Z,10.17
2017-10-06T05:07:06.131Z,7.07
2017-10-06T05:09:37.786Z,6.63
2017-10-06T05:12:08.973Z,6.10
2017-10-06T05:14:39.697Z,7.10
2017-10-06T05:17:11.724Z,6.70
2017-10-06T05:19:44.443Z,7.07
2017-10-06T05:22:16.865Z,9.17
2017-10-06T05:24:49.252Z,9.50
2017-10-06T05:27:26.368Z,8.87
2017-10-06T05:29:57.307Z,8.10
2017-10-06T05:32:33.059Z,7.23
2017-10-06T05:35:06.732Z,27.70
2017-10-06T05:37:41.452Z,7.37
2017-10-06T05:40:15.918Z,9.40
2017-10-06T05:42:50.992Z,11.30
2017-10-06T05:45:23.737Z,8.47
2017-10-06T05:47:56.530Z,9.27
2017-10-06T05:50:29.995Z,9.30
2017-10-06T05:53:02.811Z,9.23
2017-10-06T05:55:35.782Z,9.00
2017-10-06T05:58:08.111Z,10.07
2017-10-06T06:00:40.815Z,10.77
2017-10-06T06:03:12.565Z,9.87
2017-10-06T06:05:45.552Z,11.03
2017-10-06T06:08:18.868Z,8.90
2017-10-06T06:10:54.711Z,12.60
2017-10-06T06:13:27.312Z,10.60
2017-10-06T06:16:00.027Z,9.70
2017-10-06T06:18:31.043Z,9.80
2017-10-06T06:21:05.851Z,9.03
2017-10-06T06:23:40.361Z,8.90
2017-10-06T06:26:15.302Z,7.87
2017-10-06T06:28:46.929Z,6.87
2017-10-06T06:31:21.434Z,8.70
2017-10-06T06:33:54.848Z,7.90
2017-10-06T06:36:30.111Z,9.33
2017-10-06T06:39:03.165Z,7.97
2017-10-06T06:41:36.223Z,14.83
2017-10-06T06:44:09.006Z,9.33
2017-10-06T06:46:49.341Z,8.07
2017-10-06T06:49:23.783Z,6.97
2017-10-06T06:51:58.246Z,8.80
2017-10-06T06:54:33.592Z,8.40
2017-10-06T06:57:08.519Z,9.33
2017-10-06T06:59:40.374Z,9.20
2017-10-06T07:02:12.907Z,9.70
2017-10-06T07:04:45.644Z,11.73
2017-10-06T07:07:24.784Z,8.40
2017-10-06T07:09:56.066Z,9.17
2017-10-06T07:12:28.226Z,9.37
2017-10-06T07:14:59.351Z,8.70
2017-10-06T07:17:30.779Z,8.50
2017-10-06T07:20:01.469Z,8.17
2017-10-06T07:22:32.954Z,7.00
2017-10-06T07:25:04.684Z,7.47
2017-10-06T07:27:36.935Z,8.00
2017-10-06T07:30:09.445Z,6.60
2017-10-06T07:32:40.212Z,6.60
2017-10-06T07:35:12.134Z,7.37
2017-10-06T07:37:43.520Z,6.70
2017-10-06T07:40:14.534Z,7.60
2017-10-06T07:42:46.499Z,6.23
2017-10-06T07:45:18.050Z,5.80
2017-10-06T07:47:50.745Z,5.90
2017-10-06T07:50:23.609Z,5.97
2017-10-06T07:53:03.686Z,5.17
2017-10-06T07:55:34.945Z,5.87
2017-10-06T07:58:06.507Z,5.03
2017-10-06T08:00:41.384Z,19.73
2017-10-06T08:03:17.270Z,5.60
2017-10-06T08:06:11.849Z,6.13
2017-10-06T08:08:46.460Z,7.80
2017-10-06T08:11:18.985Z,5.90
2017-10-06T08:14:00.720Z,6.90
2017-10-06T08:16:35.063Z,6.17
2017-10-06T08:21:56.501Z,5.00
2017-10-06T08:24:34.120Z,5.33
2017-10-06T08:27:16.663Z,5.13
2017-10-06T08:29:53.819Z,5.10
2017-10-06T08:32:36.272Z,5.87
2017-10-06T08:35:15.886Z,5.50
2017-10-06T08:37:49.078Z,7.07
2017-10-06T08:40:19.407Z,7.83
2017-10-06T08:42:51.207Z,5.30
2017-10-06T08:45:21.778Z,4.60
2017-10-06T08:47:52.433Z,6.67
2017-10-06T08:50:22.951Z,5.20
2017-10-06T08:52:52.997Z,6.83
2017-10-06T08:55:30.998Z,4.63
2017-10-06T08:58:01.222Z,4.57
2017-10-06T09:00:31.558Z,5.90
2017-10-06T09:03:02.717Z,3.73
2017-10-06T09:05:33.969Z,6.03
2017-10-06T09:08:04.510Z,3.40
2017-10-06T09:10:39.156Z,4.83
2017-10-06T09:13:10.899Z,4.97
2017-10-06T09:15:41.784Z,4.83
2017-10-06T09:18:14.401Z,3.33
2017-10-06T09:20:45.720Z,3.90
2017-10-06T09:23:16.463Z,4.13
2017-10-06T09:25:46.999Z,4.37
2017-10-06T09:28:17.427Z,6.53
2017-10-06T09:30:47.619Z,4.47
2017-10-06T09:33:22.152Z,5.20
2017-10-06T09:35:54.499Z,5.17
2017-10-06T09:38:26.293Z,4.90
2017-10-06T09:41:03.073Z,5.20
2017-10-06T09:43:35.169Z,5.97
2017-10-06T09:46:07.961Z,8.87
2017-10-06T09:48:42.718Z,6.73
2017-10-06T09:51:18.141Z,9.50
2017-10-06T09:53:55.097Z,8.07
2017-10-06T09:56:27.852Z,7.80
2017-10-06T09:59:00.478Z,8.47
2017-10-06T10:01:30.809Z,6.33
2017-10-06T10:04:01.437Z,3.57
2017-10-06T10:06:34.011Z,4.97
2017-10-06T10:09:08.425Z,4.40
2017-10-06T10:14:14.838Z,5.10
2017-10-06T10:16:45.601Z,6.60
2017-10-06T10:19:16.368Z,5.83
2017-10-06T10:21:47.745Z,4.90
2017-10-06T10:24:18.655Z,3.20
2017-10-06T10:26:50.353Z,8.23
2017-10-06T10:29:21.719Z,3.73
2017-10-06T10:31:53.309Z,6.50
2017-10-06T10:34:26.326Z,4.37
2017-10-06T10:36:57.822Z,4.57
2017-10-06T10:39:28.751Z,6.60
2017-10-06T10:41:59.495Z,4.60
2017-10-06T10:44:30.291Z,4.63
2017-10-06T10:47:09.264Z,4.17
2017-10-06T10:49:41.350Z,5.33
2017-10-06T10:52:12.214Z,2.47
2017-10-06T10:54:43.243Z,2.70
2017-10-06T10:57:14.674Z,3.67
2017-10-06T10:59:46.059Z,3.77
2017-10-06T11:02:18.227Z,2.80
2017-10-06T11:04:49.615Z,2.73
2017-10-06T11:07:20.692Z,4.40
2017-10-06T11:09:51.959Z,3.07
2017-10-06T11:12:27.590Z,5.63
2017-10-06T11:14:58.391Z,3.60
2017-10-06T11:17:29.475Z,3.30
2017-10-06T11:20:00.016Z,4.73
2017-10-06T11:22:30.547Z,4.77
2017-10-06T11:25:01.565Z,4.73
2017-10-06T11:27:32.618Z,6.77
2017-10-06T11:30:04.135Z,3.47
2017-10-06T11:32:37.107Z,5.00
2017-10-06T11:35:09.332Z,3.90
2017-10-06T11:37:42.550Z,4.77
2017-10-06T11:40:14.314Z,3.73
2017-10-06T11:42:45.730Z,3.23
2017-10-06T11:45:19.868Z,3.80
2017-10-06T11:47:53.634Z,5.10
2017-10-06T11:50:30.898Z,3.20
2017-10-06T11:53:06.862Z,3.80
2017-10-06T11:55:38.063Z,2.87
2017-10-06T11:58:11.877Z,3.90
2017-10-06T12:00:55.769Z,4.93
2017-10-06T12:03:32.490Z,5.23
2017-10-06T12:06:17.924Z,4.80
2017-10-06T12:08:52.237Z,6.00
2017-10-06T12:11:24.054Z,4.30
2017-10-06T12:13:56.996Z,3.43
2017-10-06T12:16:48.269Z,8.37
2017-10-06T12:19:23.477Z,7.57
2017-10-06T12:21:57.346Z,4.67
2017-10-06T12:24:29.152Z,5.77
2017-10-06T12:27:04.244Z,5.10
2017-10-06T12:29:41.676Z,3.73
2017-10-06T12:32:12.075Z,3.67
2017-10-06T12:34:49.417Z,4.50
2017-10-06T12:37:25.913Z,7.20
2017-10-06T12:40:02.741Z,4.60
2017-10-06T12:42:37.268Z,6.27
2017-10-06T12:45:12.497Z,3.37
2017-10-06T12:47:47.945Z,6.33
2017-10-06T12:50:23.292Z,3.93
2017-10-06T12:52:58.596Z,5.37
2017-10-06T12:55:39.277Z,7.17
2017-10-06T12:58:13.715Z,4.67
2017-10-06T13:01:02.588Z,5.03
2017-10-06T13:03:36.177Z,4.00
2017-10-06T13:06:07.491Z,5.23
2017-10-06T13:08:38.607Z,6.97
2017-10-06T13:19:35.527Z,4.37
2017-10-06T13:22:05.935Z,2.97
2017-10-06T13:24:36.762Z,6.57
2017-10-06T13:27:10.082Z,2.53
2017-10-06T13:29:41.931Z,2.30
2017-10-06T13:32:13.912Z,3.17
2017-10-06T13:34:44.705Z,2.90
2017-10-06T13:37:18.672Z,3.03
2017-10-06T13:39:49.627Z,3.40
2017-10-06T13:42:21.459Z,2.33
2017-10-06T13:44:51.764Z,3.50
2017-10-06T13:47:25.802Z,2.97
2017-10-06T13:50:00.469Z,3.70
2017-10-06T13:52:31.850Z,2.90
2017-10-06T13:55:02.370Z,3.47
2017-10-06T13:57:40.890Z,3.33
2017-10-06T14:00:23.128Z,3.67
2017-10-06T14:02:53.414Z,3.00
2017-10-06T14:05:22.950Z,4.00
2017-10-06T14:07:52.458Z,3.37
2017-10-06T14:10:36.535Z,4.03
2017-10-06T14:13:21.968Z,2.83
2017-10-06T14:15:52.111Z,2.93
2017-10-06T14:18:24.800Z,4.53
2017-10-06T14:20:59.191Z,3.33
2017-10-06T14:23:29.018Z,4.50
2017-10-06T14:25:58.406Z,3.13
2017-10-06T14:28:30.051Z,4.80
2017-10-06T14:30:59.816Z,4.90
2017-10-06T14:33:39.272Z,3.50
2017-10-06T14:36:22.057Z,4.60
2017-10-06T14:38:52.447Z,9.83
2017-10-06T14:41:23.842Z,5.20
2017-10-06T14:43:53.992Z,6.70
2017-10-06T14:46:24.694Z,14.13
2017-10-06T14:48:56.016Z,4.57
2017-10-06T14:51:26.106Z,3.13
2017-10-06T14:53:56.017Z,3.37
2017-10-06T14:56:27.233Z,5.30
2017-10-06T14:58:57.076Z,5.20
2017-10-06T15:01:26.818Z,5.83
2017-10-06T15:04:09.514Z,3.60
2017-10-06T15:06:49.508Z,3.03
2017-10-06T15:09:19.896Z,3.13
2017-10-06T15:11:49.952Z,5.70
2017-10-06T15:14:20.906Z,4.77
2017-10-06T15:16:50.562Z,4.00
2017-10-06T15:19:23.602Z,14.43
2017-10-06T15:21:55.901Z,4.43
2017-10-06T15:24:26.314Z,3.97
2017-10-06T15:26:56.787Z,4.87
2017-10-06T15:29:26.445Z,8.20
2017-10-06T15:31:57.667Z,5.67
2017-10-06T15:34:27.938Z,3.63
2017-10-06T15:37:00.826Z,4.70
2017-10-06T15:39:44.660Z,4.33
2017-10-06T15:42:14.746Z,7.23
2017-10-06T15:44:49.688Z,3.30
2017-10-06T15:47:19.271Z,4.90
2017-10-06T15:49:48.883Z,3.97
2017-10-06T15:52:23.039Z,2.77
2017-10-06T15:54:52.903Z,5.53
2017-10-06T15:57:25.660Z,4.80
2017-10-06T15:59:56.728Z,2.93
2017-10-06T16:02:27.103Z,5.63
2017-10-06T16:04:56.962Z,5.67
2017-10-06T16:07:28.347Z,3.67
2017-10-06T16:10:15.238Z,3.23
2017-10-06T16:12:46.204Z,4.87
2017-10-06T16:15:17.323Z,4.40
2017-10-06T16:17:47.371Z,3.47
2017-10-06T16:20:41.977Z,3.60
2017-10-06T16:23:29.478Z,3.30
2017-10-06T16:26:00.494Z,5.50
2017-10-06T16:28:31.613Z,5.97
2017-10-06T16:31:12.190Z,4.50
2017-10-06T16:33:46.825Z,5.00
2017-10-06T16:36:17.377Z,4.60
2017-10-06T16:38:48.135Z,6.03
2017-10-06T16:41:18.343Z,5.87
2017-10-06T16:43:47.881Z,5.67
2017-10-06T16:46:17.597Z,3.50
2017-10-06T16:48:51.024Z,5.00
2017-10-06T16:51:21.764Z,4.60
2017-10-06T16:53:51.764Z,5.30
2017-10-06T16:56:38.511Z,6.30
2017-10-06T16:59:13.901Z,6.80
2017-10-06T17:01:43.882Z,16.43
2017-10-06T17:04:15.085Z,4.60
2017-10-06T17:06:45.118Z,8.17
2017-10-06T17:09:14.687Z,5.60
2017-10-06T17:11:44.372Z,8.57
2017-10-06T17:14:15.286Z,5.73
2017-10-06T17:16:46.425Z,24.03
2017-10-06T17:19:19.236Z,5.70
2017-10-06T17:21:49.602Z,12.37
2017-10-06T17:24:21.163Z,12.23
2017-10-06T17:26:51.602Z,11.17
2017-10-06T17:29:21.489Z,7.93
2017-10-06T17:31:51.292Z,36.40
2017-10-06T17:34:20.993Z,45.23
2017-10-06T17:36:50.588Z,9.30
2017-10-06T17:39:20.721Z,14.87
2017-10-06T17:41:50.179Z,28.63
2017-10-06T17:44:19.987Z,70.97
2017-10-06T17:46:49.676Z,21.50
2017-10-06T17:49:25.368Z,6.37
2017-10-06T17:52:11.473Z,34.63
2017-10-06T17:54:51.508Z,7.97
2017-10-06T17:57:36.978Z,7.97
2017-10-06T18:00:08.185Z,8.83
2017-10-06T18:02:38.120Z,20.10
2017-10-06T18:05:08.657Z,15.83
2017-10-06T18:07:38.554Z,31.27
2017-10-06T18:10:08.739Z,7.97
2017-10-06T18:12:39.133Z,32.53
2017-10-06T18:15:10.786Z,17.23
2017-10-06T18:17:44.084Z,7.67
2017-10-06T18:20:24.044Z,14.63
2017-10-06T18:22:53.641Z,25.93
2017-10-06T18:25:27.845Z,8.90
2017-10-06T18:27:59.006Z,5.77
2017-10-06T18:30:29.414Z,13.27
2017-10-06T18:32:59.988Z,18.47
2017-10-06T18:35:31.542Z,16.23
2017-10-06T18:38:08.514Z,70.47
2017-10-06T18:40:38.585Z,22.80
2017-10-06T18:43:09.427Z,84.33
2017-10-06T18:45:42.432Z,72.37
2017-10-06T18:48:18.370Z,17.07
2017-10-06T18:50:52.529Z,26.50
2017-10-06T18:53:24.549Z,42.27
2017-10-06T18:55:56.773Z,12.90
2017-10-06T18:58:26.758Z,87.20
2017-10-06T19:00:56.555Z,23.90
2017-10-06T19:03:28.658Z,9.00
2017-10-06T19:05:59.555Z,25.03
2017-10-06T19:08:30.298Z,9.57
2017-10-06T19:11:00.330Z,40.00
2017-10-06T19:13:33.295Z,16.47
2017-10-06T19:16:10.553Z,22.40
2017-10-06T19:18:43.529Z,79.13
2017-10-06T19:21:13.563Z,41.23
2017-10-06T19:23:57.305Z,33.97
2017-10-06T19:26:28.674Z,18.63
2017-10-06T19:29:06.227Z,12.70
2017-10-06T19:31:44.390Z,11.93
2017-10-06T19:34:23.540Z,12.30
2017-10-06T19:37:01.040Z,7.30
2017-10-06T19:39:33.461Z,11.60
2017-10-06T19:42:11.533Z,52.33
2017-10-06T19:44:46.111Z,13.10
2017-10-06T19:47:16.681Z,10.97
2017-10-06T19:49:46.164Z,39.60
2017-10-06T19:52:21.377Z,16.83
2017-10-06T19:54:51.787Z,20.00
2017-10-06T19:57:23.627Z,20.50
2017-10-06T19:59:53.166Z,22.17
2017-10-06T20:02:23.811Z,21.00
2017-10-06T20:05:04.118Z,17.67
2017-10-06T20:07:43.724Z,10.60
2017-10-06T20:10:23.217Z,13.17
2017-10-06T20:13:03.698Z,11.00
2017-10-06T20:15:46.130Z,15.20
2017-10-06T20:18:28.571Z,77.93
2017-10-06T20:20:58.764Z,23.67
2017-10-06T20:23:32.235Z,11.90
2017-10-06T20:26:02.909Z,42.53
2017-10-06T20:28:34.167Z,24.13
2017-10-06T20:31:13.524Z,19.23
2017-10-06T20:33:44.050Z,34.73
2017-10-06T20:36:14.324Z,59.10
2017-10-06T20:38:48.860Z,78.90
2017-10-06T20:41:19.306Z,21.17
2017-10-06T20:43:48.935Z,12.67
2017-10-06T20:46:18.827Z,28.77
2017-10-06T20:48:49.268Z,16.97
2017-10-06T20:51:19.267Z,20.27
2017-10-06T20:53:52.896Z,30.00
2017-10-06T20:56:27.787Z,42.70
2017-10-06T20:59:07.197Z,22.30
2017-10-06T21:01:46.401Z,25.60
2017-10-06T21:04:16.851Z,51.43
2017-10-06T21:06:47.226Z,52.57
2017-10-06T21:09:16.695Z,49.27
2017-10-06T21:11:47.506Z,41.80
2017-10-06T21:14:17.335Z,104.37
2017-10-06T21:16:47.628Z,140.43
2017-10-06T21:19:26.789Z,48.63
2017-10-06T21:22:03.376Z,70.47
2017-10-06T21:24:39.482Z,61.63
2017-10-06T21:27:17.318Z,24.03
2017-10-06T21:29:56.487Z,56.03
2017-10-06T21:32:32.949Z,30.03
2017-10-06T21:35:04.520Z,39.60
2017-10-06T21:37:41.581Z,47.23
2017-10-06T21:40:14.357Z,10.40
2017-10-06T21:42:44.098Z,37.43
2017-10-06T21:45:15.303Z,126.23
2017-10-06T21:47:45.011Z,89.20
2017-10-06T21:50:22.306Z,53.33
2017-10-06T21:52:55.073Z,28.43
2017-10-06T21:55:24.707Z,24.87
2017-10-06T21:57:55.235Z,46.63
2017-10-06T22:00:30.853Z,56.43
2017-10-06T22:03:01.790Z,80.03
2017-10-06T22:05:32.228Z,25.47
2017-10-06T22:08:01.972Z,32.53
2017-10-06T22:10:32.115Z,21.33
2017-10-06T22:13:07.502Z,42.17
2017-10-06T22:15:38.106Z,21.67
2017-10-06T22:18:07.626Z,27.40
2017-10-06T22:20:38.684Z,67.17
2017-10-06T22:23:09.242Z,67.50
2017-10-06T22:25:40.214Z,35.30
2017-10-06T22:28:14.205Z,41.87
2017-10-06T22:30:47.176Z,35.53
2017-10-06T22:33:17.568Z,32.40
2017-10-06T22:35:57.851Z,30.27
2017-10-06T22:38:33.523Z,58.77
2017-10-06T22:41:03.374Z,60.23
2017-10-06T22:43:33.154Z,38.37
2017-10-06T22:46:02.472Z,67.30
2017-10-06T22:48:32.241Z,14.13
2017-10-06T22:51:02.053Z,44.70
2017-10-06T22:53:31.521Z,49.20
2017-10-06T22:56:05.735Z,42.63
2017-10-06T22:58:36.707Z,37.37
2017-10-06T23:01:08.942Z,28.57
2017-10-06T23:03:39.346Z,55.27
2017-10-06T23:06:09.905Z,25.03
2017-10-06T23:08:41.045Z,31.03
2017-10-06T23:11:19.630Z,41.60
2017-10-06T23:13:51.950Z,15.30
2017-10-06T23:16:36.738Z,27.93
2017-10-06T23:19:10.063Z,32.47
2017-10-06T23:21:39.659Z,23.03
2017-10-06T23:24:11.172Z,52.20
2017-10-06T23:26:44.605Z,73.87
2017-10-06T23:29:14.915Z,20.93
2017-10-06T23:31:47.376Z,30.67
2017-10-06T23:34:19.320Z,57.10
2017-10-06T23:36:56.074Z,22.53
2017-10-06T23:39:25.881Z,16.33
2017-10-06T23:41:58.829Z,13.50
2017-10-06T23:44:29.738Z,33.10
2017-10-06T23:47:01.676Z,11.40
2017-10-06T23:49:31.906Z,19.77
2017-10-06T23:52:14.867Z,22.70
2017-10-06T23:55:02.342Z,21.77
2017-10-06T23:57:34.121Z,78.03
